Time;durP1;ratioP1;P1;durP2;ratioP2;P2;SDS_P1;SDS_P2;PMS_P1;PMS_P2;Temp;Humidity;BMP_temperature;BMP_pressure;BME280_temperature;BME280_humidity;BME280_pressure;Samples;Min_cycle;Max_cycle;Signal;HPM_P1;HPM_P2
2021/10/12 00:00:31;;;;;;;15.45;4.50;;;9.70;99.90;;;;;;5096059;28;20031;-66
2021/10/12 00:02:57;;;;;;;14.55;4.03;;;9.70;99.90;;;;;;5096443;28;20036;-67
2021/10/12 00:05:22;;;;;;;12.15;5.00;;;9.70;99.90;;;;;;5096427;28;20027;-68
2021/10/12 00:07:48;;;;;;;12.10;4.40;;;9.70;99.90;;;;;;5096553;28;20420;-67
2021/10/12 00:10:14;;;;;;;11.00;4.13;;;9.70;99.90;;;;;;5096607;28;20074;-67
2021/10/12 00:12:39;;;;;;;18.23;4.85;;;9.70;99.90;;;;;;5096583;28;20103;-68
2021/10/12 00:15:06;;;;;;;16.67;4.30;;;9.70;99.90;;;;;;5096506;28;20445;-67
2021/10/12 00:17:32;;;;;;;14.52;3.95;;;9.70;99.90;;;;;;5095018;28;20374;-66
2021/10/12 00:19:57;;;;;;;16.02;5.03;;;9.70;99.90;;;;;;5096110;28;20036;-67
2021/10/12 00:22:23;;;;;;;15.38;4.10;;;9.70;99.90;;;;;;5096359;28;20107;-67
2021/10/12 00:24:48;;;;;;;11.20;3.67;;;9.70;99.90;;;;;;5095815;28;20028;-67
2021/10/12 00:27:14;;;;;;;14.27;4.30;;;9.70;99.90;;;;;;5095859;28;20556;-67
2021/10/12 00:29:40;;;;;;;12.57;3.78;;;9.70;99.90;;;;;;5096167;28;20042;-67
2021/10/12 00:32:06;;;;;;;10.50;4.13;;;9.70;99.90;;;;;;5095892;28;20099;-67
2021/10/12 00:34:31;;;;;;;13.05;4.18;;;9.70;99.90;;;;;;5095864;28;20377;-67
2021/10/12 00:36:57;;;;;;;9.82;4.03;;;9.70;99.90;;;;;;5095804;28;20016;-67
2021/10/12 00:39:22;;;;;;;17.25;4.30;;;9.70;99.90;;;;;;5095786;28;20052;-66
2021/10/12 00:41:48;;;;;;;12.98;4.00;;;9.80;99.90;;;;;;5095702;28;20039;-67
2021/10/12 00:44:13;;;;;;;11.98;4.38;;;9.70;99.90;;;;;;5094126;28;20424;-68
2021/10/12 00:46:39;;;;;;;12.40;3.80;;;9.80;99.90;;;;;;5095909;28;20032;-66
2021/10/12 00:49:05;;;;;;;16.60;4.63;;;9.80;99.90;;;;;;5095758;28;20024;-68
2021/10/12 00:51:31;;;;;;;10.18;4.30;;;9.80;99.90;;;;;;5095505;28;20099;-68
2021/10/12 00:53:56;;;;;;;18.00;4.28;;;9.80;99.90;;;;;;5095738;28;20016;-67
2021/10/12 00:56:22;;;;;;;13.35;4.18;;;9.80;99.90;;;;;;5095437;28;20036;-67
2021/10/12 00:58:48;;;;;;;14.27;3.95;;;9.80;99.90;;;;;;5095632;28;20462;-67
2021/10/12 01:01:14;;;;;;;10.68;4.07;;;9.80;99.90;;;;;;5095606;28;20028;-66
2021/10/12 01:03:40;;;;;;;16.13;3.80;;;9.80;99.90;;;;;;5095563;28;20032;-69
2021/10/12 01:06:07;;;;;;;11.70;4.00;;;9.80;99.90;;;;;;5094076;28;20111;-67
2021/10/12 01:08:32;;;;;;;12.80;4.57;;;9.80;99.90;;;;;;5095114;28;20031;-67
2021/10/12 01:10:58;;;;;;;17.80;5.28;;;9.90;99.90;;;;;;5094849;28;20422;-67
2021/10/12 01:13:24;;;;;;;15.50;4.55;;;9.80;99.90;;;;;;5094523;28;20023;-68
2021/10/12 01:15:51;;;;;;;10.60;4.32;;;9.80;99.90;;;;;;5095064;28;20020;-67
2021/10/12 01:18:17;;;;;;;16.15;4.88;;;9.80;99.90;;;;;;5094969;28;20051;-67
2021/10/12 01:20:43;;;;;;;21.23;4.97;;;9.80;99.90;;;;;;5093994;28;20028;-66
2021/10/12 01:23:09;;;;;;;17.80;4.43;;;9.80;99.90;;;;;;5093715;28;20035;-68
2021/10/12 01:25:34;;;;;;;20.02;4.53;;;9.80;99.90;;;;;;5095105;28;20024;-67
2021/10/12 01:28:00;;;;;;;17.05;4.18;;;9.80;99.90;;;;;;5094476;28;20051;-66
2021/10/12 01:30:26;;;;;;;13.70;4.18;;;9.80;99.90;;;;;;5094791;28;20107;-66
2021/10/12 01:32:52;;;;;;;17.25;5.07;;;9.80;99.90;;;;;;5094745;28;20031;-66
2021/10/12 01:35:17;;;;;;;14.05;5.30;;;9.80;99.90;;;;;;5094657;28;20042;-66
2021/10/12 01:37:43;;;;;;;11.02;4.57;;;9.80;99.90;;;;;;5094904;28;20468;-67
2021/10/12 01:40:10;;;;;;;14.27;5.05;;;9.80;99.90;;;;;;5094864;28;20028;-66
2021/10/12 01:42:36;;;;;;;19.92;5.57;;;9.80;99.90;;;;;;5093416;28;20023;-66
2021/10/12 01:45:06;;;;;;;13.55;4.97;;;9.80;99.90;;;;;;5094531;28;20016;-66
2021/10/12 01:47:32;;;;;;;15.23;5.57;;;9.80;99.90;;;;;;5094196;28;20020;-66
2021/10/12 01:49:58;;;;;;;15.98;5.70;;;9.80;99.90;;;;;;5094616;28;20028;-67
2021/10/12 01:52:24;;;;;;;21.92;5.88;;;9.80;99.90;;;;;;5094453;28;20056;-66
2021/10/12 01:54:49;;;;;;;15.38;5.18;;;9.80;99.90;;;;;;5094105;28;20035;-66
2021/10/12 01:57:17;;;;;;;13.75;6.05;;;9.80;99.90;;;;;;5094052;28;20016;-67
2021/10/12 01:59:43;;;;;;;14.00;6.18;;;9.80;99.90;;;;;;5094282;28;20028;-67
2021/10/12 02:02:08;;;;;;;17.60;6.00;;;9.80;99.90;;;;;;5094002;28;20035;-66
2021/10/12 02:04:34;;;;;;;18.35;6.63;;;9.80;99.90;;;;;;5094255;28;20454;-67
2021/10/12 02:07:00;;;;;;;20.17;7.20;;;9.80;99.90;;;;;;5094459;28;20016;-68
2021/10/12 02:09:26;;;;;;;19.50;7.57;;;9.80;99.90;;;;;;5093774;28;20028;-66
2021/10/12 02:11:52;;;;;;;19.35;7.47;;;9.70;99.90;;;;;;5094109;28;20036;-67
2021/10/12 02:14:18;;;;;;;18.73;8.25;;;9.70;99.90;;;;;;5094356;28;20107;-67
2021/10/12 02:16:43;;;;;;;20.63;9.40;;;9.80;99.90;;;;;;5092901;28;20024;-67
2021/10/12 02:19:09;;;;;;;25.70;9.65;;;9.80;99.90;;;;;;5094853;28;20024;-66
2021/10/12 02:21:35;;;;;;;25.92;9.98;;;9.80;99.90;;;;;;5094265;28;20028;-66
2021/10/12 02:24:00;;;;;;;24.13;9.50;;;9.80;99.90;;;;;;5093824;28;20381;-67
2021/10/12 02:26:26;;;;;;;19.23;9.50;;;9.70;99.90;;;;;;5094200;28;20067;-67
2021/10/12 02:28:51;;;;;;;23.73;11.57;;;9.70;99.90;;;;;;5093571;28;20137;-67
2021/10/12 02:31:17;;;;;;;22.20;12.25;;;9.70;99.90;;;;;;5093608;28;20032;-67
2021/10/12 02:33:43;;;;;;;29.73;11.77;;;9.70;99.90;;;;;;5093874;28;20023;-66
2021/10/12 02:36:08;;;;;;;28.58;13.02;;;9.70;99.90;;;;;;5093832;28;20470;-68
2021/10/12 02:38:34;;;;;;;31.67;13.80;;;9.70;99.90;;;;;;5094085;28;20028;-66
2021/10/12 02:41:00;;;;;;;28.00;13.13;;;9.70;99.90;;;;;;5092912;28;20024;-68
2021/10/12 02:43:25;;;;;;;27.55;13.65;;;9.70;99.90;;;;;;5092771;28;20024;-67
2021/10/12 02:45:51;;;;;;;24.90;14.05;;;9.70;99.90;;;;;;5094033;28;20032;-67
2021/10/12 02:48:16;;;;;;;32.97;14.63;;;9.70;99.90;;;;;;5093898;28;20028;-67
2021/10/12 02:50:43;;;;;;;28.80;15.27;;;9.80;99.90;;;;;;5093681;28;20465;-67
2021/10/12 02:53:11;;;;;;;27.65;15.02;;;9.80;99.90;;;;;;5093710;28;20038;-67
2021/10/12 02:55:37;;;;;;;31.02;15.48;;;9.80;99.90;;;;;;5093354;28;20110;-66
2021/10/12 02:58:03;;;;;;;34.03;15.68;;;9.80;99.90;;;;;;5093634;28;20056;-66
2021/10/12 03:00:28;;;;;;;26.40;15.48;;;9.80;99.90;;;;;;5093321;28;20073;-68
2021/10/12 03:02:54;;;;;;;33.25;16.30;;;9.80;99.90;;;;;;5093834;28;20036;-66
2021/10/12 03:05:19;;;;;;;30.35;15.82;;;9.80;99.90;;;;;;5093856;28;20034;-67
2021/10/12 03:07:45;;;;;;;34.45;17.60;;;9.80;99.90;;;;;;5093733;28;20032;-67
2021/10/12 03:10:11;;;;;;;33.92;17.25;;;9.80;99.90;;;;;;5093795;28;20078;-67
2021/10/12 03:12:36;;;;;;;34.40;17.23;;;9.80;99.90;;;;;;5093750;28;20016;-66
2021/10/12 03:15:04;;;;;;;30.58;16.42;;;9.80;99.90;;;;;;5093758;28;20104;-66
2021/10/12 03:17:29;;;;;;;28.17;16.08;;;9.80;99.90;;;;;;5093152;28;20386;-66
2021/10/12 03:19:55;;;;;;;28.80;14.98;;;9.80;99.90;;;;;;5093422;28;20024;-66
2021/10/12 03:22:20;;;;;;;32.05;15.10;;;9.80;99.90;;;;;;5093670;28;20373;-66
2021/10/12 03:24:46;;;;;;;28.27;15.02;;;9.80;99.90;;;;;;5093631;28;20063;-66
2021/10/12 03:27:13;;;;;;;35.17;15.93;;;9.80;99.90;;;;;;5093579;28;20035;-66
2021/10/12 03:29:39;;;;;;;27.77;14.73;;;9.80;99.90;;;;;;5092855;28;20094;-67
2021/10/12 03:32:05;;;;;;;31.90;16.23;;;9.80;99.90;;;;;;5093291;28;20024;-67
2021/10/12 03:34:32;;;;;;;33.63;15.52;;;9.80;99.90;;;;;;5093553;28;20016;-66
2021/10/12 03:36:59;;;;;;;30.73;15.27;;;9.80;99.90;;;;;;5096288;28;20023;-66
2021/10/12 03:39:26;;;;;;;28.92;14.90;;;9.80;99.90;;;;;;5096927;28;20032;-66
2021/10/12 03:41:52;;;;;;;28.65;14.50;;;9.80;99.90;;;;;;5095365;28;20035;-67
2021/10/12 03:44:20;;;;;;;35.58;15.63;;;9.80;99.90;;;;;;5097099;28;20024;-66
2021/10/12 03:46:46;;;;;;;28.60;14.77;;;9.80;99.90;;;;;;5096806;28;20031;-66
2021/10/12 03:49:12;;;;;;;27.80;14.43;;;9.80;99.90;;;;;;5096942;28;20350;-67
2021/10/12 03:51:40;;;;;;;35.25;15.77;;;9.80;99.90;;;;;;5096991;28;20360;-66
2021/10/12 03:54:05;;;;;;;37.20;16.08;;;9.80;99.90;;;;;;5095141;28;20024;-66
2021/10/12 03:56:31;;;;;;;32.95;15.38;;;9.80;99.90;;;;;;5096859;28;20031;-67
2021/10/12 03:58:56;;;;;;;26.77;14.95;;;9.80;99.90;;;;;;5096839;28;20034;-67
2021/10/12 04:01:22;;;;;;;28.75;16.02;;;9.80;99.90;;;;;;5096502;28;20032;-67
2021/10/12 04:03:48;;;;;;;28.17;15.07;;;9.80;99.90;;;;;;5094964;28;20056;-67
2021/10/12 04:06:15;;;;;;;30.13;14.68;;;9.80;99.90;;;;;;5096702;28;20225;-66
2021/10/12 04:08:42;;;;;;;27.23;13.52;;;9.80;99.90;;;;;;5094789;28;20464;-67
2021/10/12 04:11:08;;;;;;;29.83;14.55;;;9.80;99.90;;;;;;5096591;28;20099;-67
2021/10/12 04:13:34;;;;;;;33.72;14.65;;;9.80;99.90;;;;;;5096535;28;20273;-67
2021/10/12 04:15:59;;;;;;;31.25;15.15;;;9.80;99.90;;;;;;5096517;28;20024;-67
2021/10/12 04:18:25;;;;;;;34.10;14.15;;;9.80;99.90;;;;;;5096125;28;20024;-67
2021/10/12 04:20:50;;;;;;;31.50;15.15;;;9.80;99.90;;;;;;5096238;28;20470;-68
2021/10/12 04:23:16;;;;;;;29.00;14.80;;;9.80;99.90;;;;;;5094624;28;20035;-68
2021/10/12 04:25:42;;;;;;;33.60;15.38;;;9.80;99.90;;;;;;5094531;28;20027;-67
2021/10/12 04:28:11;;;;;;;31.08;15.48;;;9.80;99.90;;;;;;5095759;28;20047;-67
2021/10/12 04:30:42;;;;;;;32.88;16.17;;;9.80;99.90;;;;;;5096296;28;20024;-68
2021/10/12 04:33:08;;;;;;;37.85;16.50;;;9.80;99.90;;;;;;5096162;28;20020;-66
2021/10/12 04:35:34;;;;;;;38.15;16.05;;;9.80;99.90;;;;;;5095871;28;20027;-65
2021/10/12 04:38:00;;;;;;;30.55;15.90;;;9.90;99.90;;;;;;5096085;28;20030;-66
2021/10/12 04:40:26;;;;;;;35.25;16.05;;;9.90;99.90;;;;;;5096040;28;20077;-67
2021/10/12 04:42:52;;;;;;;37.35;16.23;;;9.90;99.90;;;;;;5094254;28;20032;-66
2021/10/12 04:45:18;;;;;;;35.25;14.48;;;9.90;99.90;;;;;;5095926;28;20046;-67
2021/10/12 04:47:44;;;;;;;29.00;14.95;;;9.90;99.90;;;;;;5095620;28;20036;-67
2021/10/12 04:50:09;;;;;;;32.95;15.90;;;9.90;99.90;;;;;;5095780;28;20023;-68
2021/10/12 04:52:35;;;;;;;37.25;15.82;;;9.90;99.90;;;;;;5095532;28;20024;-67
2021/10/12 04:55:01;;;;;;;37.28;15.27;;;9.90;99.90;;;;;;5095438;28;20024;-66
2021/10/12 04:57:27;;;;;;;32.33;15.45;;;9.90;99.90;;;;;;5095416;28;20016;-66
2021/10/12 04:59:52;;;;;;;34.03;15.98;;;9.90;99.90;;;;;;5095663;28;20424;-66
2021/10/12 05:02:19;;;;;;;42.22;17.67;;;9.90;99.90;;;;;;5093868;28;20024;-66
2021/10/12 05:04:45;;;;;;;36.13;17.67;;;9.90;99.90;;;;;;5095541;28;20023;-66
2021/10/12 05:07:11;;;;;;;37.95;16.90;;;9.90;99.90;;;;;;5094942;28;20500;-66
2021/10/12 05:09:37;;;;;;;37.05;17.30;;;9.90;99.90;;;;;;5095119;28;20050;-66
2021/10/12 05:12:02;;;;;;;37.03;18.05;;;9.90;99.90;;;;;;5094868;28;20073;-67
2021/10/12 05:14:28;;;;;;;39.40;19.88;;;9.90;99.90;;;;;;5095055;28;20073;-67
2021/10/12 05:16:55;;;;;;;40.78;20.58;;;9.90;99.90;;;;;;5094751;28;20099;-67
2021/10/12 05:19:21;;;;;;;45.35;21.33;;;9.90;99.90;;;;;;5094987;28;20035;-67
2021/10/12 05:21:46;;;;;;;47.05;22.63;;;9.90;99.90;;;;;;5094943;28;20020;-67
2021/10/12 05:24:12;;;;;;;52.10;25.92;;;9.90;99.90;;;;;;5095190;28;20531;-67
2021/10/12 05:26:37;;;;;;;51.63;25.80;;;9.90;99.90;;;;;;5093347;28;20123;-67
2021/10/12 05:29:03;;;;;;;56.15;26.73;;;9.90;99.90;;;;;;5094367;28;20054;-67
2021/10/12 05:31:29;;;;;;;53.85;26.40;;;9.90;99.90;;;;;;5095066;28;20094;-66
2021/10/12 05:33:55;;;;;;;55.08;27.88;;;9.90;99.90;;;;;;5094993;28;20447;-67
2021/10/12 05:36:21;;;;;;;56.08;27.38;;;9.90;99.90;;;;;;5094981;28;20028;-66
2021/10/12 05:38:47;;;;;;;59.65;28.60;;;9.90;99.90;;;;;;5094913;28;20458;-66
2021/10/12 05:41:13;;;;;;;56.78;28.25;;;9.90;99.90;;;;;;5094878;28;20069;-66
2021/10/12 05:43:39;;;;;;;54.70;27.70;;;9.90;99.90;;;;;;5094772;28;20024;-67
2021/10/12 05:46:05;;;;;;;59.10;28.42;;;9.90;99.90;;;;;;5094802;28;20039;-66
2021/10/12 05:48:31;;;;;;;57.78;29.08;;;9.90;99.90;;;;;;5094687;28;20036;-67
2021/10/12 05:50:57;;;;;;;59.20;29.75;;;9.90;99.90;;;;;;5094397;28;20073;-67
2021/10/12 05:53:56;;;;;;;50.85;28.02;;;9.90;99.90;;;;;;5094652;28;20020;-67
2021/10/12 05:56:13;;;;;;;54.17;27.17;;;9.90;99.90;;;;;;5094432;28;20025;-67
2021/10/12 05:58:43;;;;;;;51.40;27.00;;;10.00;99.90;;;;;;5093897;28;20028;-67
2021/10/12 06:01:10;;;;;;;53.85;28.95;;;10.00;99.90;;;;;;5094182;28;20024;-66
2021/10/12 06:03:36;;;;;;;55.45;28.30;;;10.00;99.90;;;;;;5092983;28;20031;-67
2021/10/12 06:06:02;;;;;;;57.38;28.95;;;10.00;99.90;;;;;;5094477;28;20020;-67
2021/10/12 06:08:30;;;;;;;57.40;29.67;;;10.00;99.90;;;;;;5094058;28;20023;-67
2021/10/12 06:10:57;;;;;;;57.22;29.98;;;10.00;99.90;;;;;;5077247;28;20024;-66
2021/10/12 06:13:23;;;;;;;60.15;31.70;;;10.00;99.90;;;;;;5054000;28;20024;-67
2021/10/12 06:15:49;;;;;;;60.55;30.35;;;10.00;99.90;;;;;;5061313;28;20016;-67
2021/10/12 06:18:15;;;;;;;62.00;32.10;;;10.10;99.90;;;;;;5069040;28;20029;-66
2021/10/12 06:20:41;;;;;;;62.00;30.75;;;10.10;99.90;;;;;;5053988;28;20108;-68
2021/10/12 06:23:08;;;;;;;62.20;32.00;;;10.10;99.90;;;;;;5053907;28;20060;-68
2021/10/12 06:25:35;;;;;;;55.13;30.02;;;10.10;99.90;;;;;;5057915;28;20039;-67
2021/10/12 06:28:00;;;;;;;57.92;30.95;;;10.20;99.90;;;;;;5070585;28;20094;-67
2021/10/12 06:30:26;;;;;;;59.75;30.55;;;10.20;99.90;;;;;;5073762;28;20020;-68
2021/10/12 06:32:52;;;;;;;56.15;31.27;;;10.20;99.90;;;;;;5070537;28;20023;-67
2021/10/12 06:35:18;;;;;;;63.90;30.85;;;10.10;99.90;;;;;;5053012;28;20025;-67
2021/10/12 06:37:43;;;;;;;60.05;31.65;;;10.20;99.90;;;;;;5070593;28;20570;-68
2021/10/12 06:40:09;;;;;;;64.45;30.55;;;10.10;99.90;;;;;;5053141;28;20587;-61
2021/10/12 06:42:35;;;;;;;56.67;29.10;;;10.20;99.90;;;;;;5064519;28;20405;-63
2021/10/12 06:45:01;;;;;;;49.78;28.98;;;10.20;99.90;;;;;;5072600;28;20482;-62
2021/10/12 06:47:27;;;;;;;57.35;30.80;;;10.20;99.90;;;;;;5080829;28;20458;-62
2021/10/12 06:49:52;;;;;;;56.47;30.23;;;10.20;99.90;;;;;;5066246;28;20032;-61
2021/10/12 06:52:20;;;;;;;63.17;30.73;;;10.20;99.90;;;;;;5074207;28;20027;-62
2021/10/12 06:54:48;;;;;;;58.75;31.77;;;10.20;99.90;;;;;;5063656;28;20017;-62
2021/10/12 06:57:13;;;;;;;68.00;32.63;;;10.30;99.90;;;;;;5070919;28;20016;-61
2021/10/12 06:59:39;;;;;;;59.53;31.90;;;10.30;99.90;;;;;;5071215;28;20094;-62
2021/10/12 07:02:05;;;;;;;60.50;32.17;;;10.30;99.90;;;;;;5069681;28;20044;-62
2021/10/12 07:04:30;;;;;;;56.45;32.00;;;10.20;99.90;;;;;;5077865;28;20513;-61
2021/10/12 07:06:56;;;;;;;58.30;32.65;;;10.30;99.90;;;;;;5110548;28;20116;-61
2021/10/12 07:09:21;;;;;;;62.25;32.65;;;10.30;99.90;;;;;;5076546;28;20029;-61
2021/10/12 07:11:47;;;;;;;61.60;32.17;;;10.30;99.90;;;;;;5076662;28;20029;-65
2021/10/12 07:14:14;;;;;;;62.00;33.28;;;10.30;99.90;;;;;;5079814;28;20089;-61
2021/10/12 07:16:40;;;;;;;63.72;34.63;;;10.20;99.90;;;;;;5072254;28;20016;-61
2021/10/12 07:19:06;;;;;;;69.15;34.63;;;10.20;99.90;;;;;;5079413;28;20028;-62
2021/10/12 07:21:33;;;;;;;58.70;32.88;;;10.20;99.90;;;;;;5076336;28;20108;-67
2021/10/12 07:23:59;;;;;;;66.03;33.67;;;10.20;99.90;;;;;;5076807;28;20090;-67
2021/10/12 07:26:25;;;;;;;63.08;33.53;;;10.20;99.90;;;;;;5076375;28;20030;-68
2021/10/12 07:28:51;;;;;;;59.88;32.97;;;10.20;99.90;;;;;;5075999;28;20059;-67
2021/10/12 07:31:16;;;;;;;59.17;33.10;;;10.20;99.90;;;;;;5076527;28;20040;-67
2021/10/12 07:33:42;;;;;;;57.33;32.53;;;10.20;99.90;;;;;;5082850;28;20024;-68
2021/10/12 07:36:08;;;;;;;59.28;32.75;;;10.20;99.90;;;;;;5088713;28;20016;-67
2021/10/12 07:38:46;;;;;;;64.97;31.25;;;10.20;99.90;;;;;;5077471;28;20021;-67
2021/10/12 07:41:12;;;;;;;58.05;30.83;;;10.20;99.90;;;;;;5075964;28;20028;-67
2021/10/12 07:43:38;;;;;;;51.28;30.88;;;10.20;99.90;;;;;;5081125;28;20469;-67
2021/10/12 07:46:05;;;;;;;60.83;33.05;;;10.20;99.90;;;;;;5096776;28;20046;-66
2021/10/12 07:48:31;;;;;;;55.42;31.77;;;10.20;99.90;;;;;;5093474;28;20107;-67
2021/10/12 07:50:57;;;;;;;48.40;30.65;;;10.30;99.90;;;;;;5095291;28;20020;-67
2021/10/12 07:53:22;;;;;;;47.28;29.23;;;10.30;99.90;;;;;;5075368;28;20025;-67
2021/10/12 07:55:52;;;;;;;49.33;28.98;;;10.40;99.90;;;;;;5087345;28;20099;-68
2021/10/12 07:58:18;;;;;;;38.42;26.00;;;10.40;99.90;;;;;;5095282;28;20099;-68
2021/10/12 08:00:43;;;;;;;41.67;26.67;;;10.40;99.90;;;;;;5093932;28;20114;-67
2021/10/12 08:03:10;;;;;;;42.85;26.17;;;10.40;99.90;;;;;;5094809;28;20032;-67
2021/10/12 08:05:36;;;;;;;41.78;25.10;;;10.50;99.90;;;;;;5074533;28;20115;-68
2021/10/12 08:08:03;;;;;;;41.20;25.42;;;10.50;99.90;;;;;;5075278;28;20509;-67
2021/10/12 08:10:29;;;;;;;43.45;26.60;;;10.50;99.90;;;;;;5084498;28;20465;-67
2021/10/12 08:12:57;;;;;;;36.38;22.77;;;10.60;99.90;;;;;;5076010;28;20035;-67
2021/10/12 08:15:23;;;;;;;34.88;23.98;;;10.70;99.90;;;;;;5077038;28;20032;-67
2021/10/12 08:17:49;;;;;;;35.38;23.38;;;10.80;99.90;;;;;;5075917;28;20020;-66
2021/10/12 08:20:15;;;;;;;30.65;20.83;;;10.80;99.90;;;;;;5075860;28;20028;-67
2021/10/12 08:22:41;;;;;;;28.73;20.38;;;10.80;99.90;;;;;;5072727;28;20024;-66
2021/10/12 08:25:08;;;;;;;35.22;22.52;;;10.70;99.90;;;;;;5073171;28;20028;-66
2021/10/12 08:27:34;;;;;;;39.45;22.20;;;10.80;99.90;;;;;;5075245;28;20033;-66
2021/10/12 08:30:00;;;;;;;31.25;21.30;;;10.80;99.90;;;;;;5075068;28;20477;-66
2021/10/12 08:32:25;;;;;;;29.40;20.40;;;10.80;99.90;;;;;;5074948;28;20032;-66
2021/10/12 08:34:51;;;;;;;36.45;21.55;;;10.80;99.90;;;;;;5088916;28;20028;-67
2021/10/12 08:37:17;;;;;;;32.97;19.85;;;10.80;99.90;;;;;;5093144;28;20401;-67
2021/10/12 08:39:44;;;;;;;31.42;20.85;;;10.80;99.90;;;;;;5088186;28;20485;-67
2021/10/12 08:42:29;;;;;;;30.90;19.80;;;10.70;99.90;;;;;;5076526;28;20028;-66
2021/10/12 08:44:58;;;;;;;27.40;19.35;;;10.80;99.90;;;;;;5080900;28;20028;-66
2021/10/12 08:47:27;;;;;;;34.00;21.20;;;10.90;99.90;;;;;;5062847;28;20600;-66
2021/10/12 08:49:53;;;;;;;32.92;18.65;;;11.00;99.90;;;;;;5058987;28;20116;-67
2021/10/12 08:52:20;;;;;;;24.38;18.23;;;11.20;99.90;;;;;;5068989;28;20056;-67
2021/10/12 08:54:47;;;;;;;22.65;16.23;;;11.40;99.90;;;;;;5092655;28;20055;-67
2021/10/12 08:57:28;;;;;;;23.13;15.80;;;11.40;99.90;;;;;;5091734;28;20115;-66
2021/10/12 08:59:55;;;;;;;23.75;16.27;;;11.30;99.90;;;;;;5094378;28;20099;-67
2021/10/12 09:02:23;;;;;;;26.92;16.58;;;11.30;99.90;;;;;;5083510;28;20031;-67
2021/10/12 09:04:49;;;;;;;25.08;17.80;;;11.20;99.90;;;;;;5078825;28;20082;-66
2021/10/12 09:07:16;;;;;;;32.30;22.05;;;11.10;99.90;;;;;;5091688;28;20028;-67
2021/10/12 09:09:41;;;;;;;24.73;17.35;;;11.10;99.90;;;;;;5075547;28;20120;-67
2021/10/12 09:12:07;;;;;;;27.80;17.35;;;11.10;99.90;;;;;;5093751;28;20103;-67
2021/10/12 09:14:49;;;;;;;22.20;17.05;;;11.10;99.90;;;;;;5079999;28;20478;-68
2021/10/12 09:17:14;;;;;;;24.40;16.35;;;11.20;99.90;;;;;;5074251;28;20024;-67
2021/10/12 09:19:40;;;;;;;26.73;17.02;;;11.40;99.90;;;;;;5088499;28;20370;-67
2021/10/12 09:22:06;;;;;;;24.70;17.02;;;11.50;99.90;;;;;;5094666;28;20032;-67
2021/10/12 09:24:40;;;;;;;25.20;16.40;;;11.50;99.90;;;;;;5079745;28;20024;-67
2021/10/12 09:27:09;;;;;;;23.58;15.90;;;11.50;99.90;;;;;;5074949;28;20359;-68
2021/10/12 09:29:37;;;;;;;25.85;18.40;;;11.30;99.90;;;;;;5073823;28;20140;-68
2021/10/12 09:32:05;;;;;;;23.80;17.67;;;11.30;99.90;;;;;;5073354;28;20021;-67
2021/10/12 09:34:31;;;;;;;24.85;16.95;;;11.30;99.90;;;;;;5109011;27;20032;-67
2021/10/12 09:36:58;;;;;;;21.50;16.42;;;11.50;99.90;;;;;;5076543;28;20033;-67
2021/10/12 09:39:37;;;;;;;21.30;14.82;;;11.70;99.90;;;;;;5071251;28;20020;-68
2021/10/12 09:42:07;;;;;;;24.40;14.82;;;11.70;99.90;;;;;;5086713;28;20036;-68
2021/10/12 09:44:34;;;;;;;17.52;13.38;;;11.60;99.90;;;;;;5076329;28;20016;-68
2021/10/12 09:47:14;;;;;;;15.70;11.75;;;11.60;99.90;;;;;;5081983;28;20024;-69
2021/10/12 09:49:41;;;;;;;17.63;12.15;;;11.70;99.90;;;;;;5077299;28;20508;-68
2021/10/12 09:52:10;;;;;;;17.70;11.93;;;11.70;99.90;;;;;;5075576;28;20025;-69
2021/10/12 09:54:56;;;;;;;15.50;11.65;;;11.70;99.90;;;;;;5077892;28;20025;-66
2021/10/12 09:57:23;;;;;;;17.23;11.10;;;11.70;99.90;;;;;;5084889;28;20401;-69
2021/10/12 09:59:49;;;;;;;19.75;13.35;;;11.70;99.90;;;;;;5091987;28;20367;-66
2021/10/12 10:02:18;;;;;;;14.13;10.43;;;11.70;99.90;;;;;;5075203;28;20024;-66
2021/10/12 10:04:45;;;;;;;16.10;11.02;;;11.60;99.90;;;;;;5067565;28;20505;-67
2021/10/12 10:07:17;;;;;;;16.40;12.00;;;11.50;99.90;;;;;;5070212;28;20120;-67
2021/10/12 10:09:44;;;;;;;17.73;12.65;;;11.50;99.90;;;;;;5073555;28;20047;-67
2021/10/12 10:12:10;;;;;;;21.38;12.93;;;11.40;99.90;;;;;;5073377;28;20016;-64
2021/10/12 10:14:36;;;;;;;20.73;13.48;;;11.40;99.90;;;;;;5093713;28;20021;-66
2021/10/12 10:17:03;;;;;;;16.75;11.98;;;11.40;99.90;;;;;;5089832;28;20020;-67
2021/10/12 10:19:40;;;;;;;18.48;12.75;;;11.30;99.90;;;;;;5073160;28;20359;-67
2021/10/12 10:22:05;;;;;;;21.13;12.55;;;11.40;99.90;;;;;;5073377;28;20060;-67
2021/10/12 10:27:33;;;;;;;17.95;12.68;;;11.40;99.90;;;;;;5110918;27;20804;-67
2021/10/12 10:30:25;;;;;;;21.08;13.20;;;11.60;99.90;;;;;;5116043;28;20024;-67
2021/10/12 10:32:55;;;;;;;17.33;12.20;;;11.80;99.90;;;;;;5099418;28;20012;-68
2021/10/12 10:35:35;;;;;;;15.05;12.48;;;12.00;99.90;;;;;;5109519;28;20031;-67
2021/10/12 10:38:23;;;;;;;15.77;10.85;;;12.10;99.90;;;;;;5105637;28;20043;-67
2021/10/12 10:40:51;;;;;;;18.40;12.73;;;12.00;99.90;;;;;;5086105;28;20027;-67
2021/10/12 10:43:17;;;;;;;19.60;12.32;;;11.80;99.90;;;;;;5088767;28;20029;-68
2021/10/12 10:45:49;;;;;;;18.58;12.13;;;11.70;99.90;;;;;;5092551;28;20071;-67
2021/10/12 10:48:18;;;;;;;17.90;12.77;;;11.70;99.90;;;;;;5083279;28;20063;-67
2021/10/12 10:50:44;;;;;;;15.35;11.73;;;11.80;99.90;;;;;;5089378;28;20107;-67
2021/10/12 10:53:11;;;;;;;15.15;11.18;;;11.90;99.90;;;;;;5090118;28;20032;-67
2021/10/12 10:55:40;;;;;;;16.08;11.27;;;12.00;99.90;;;;;;5090202;28;20424;-68
2021/10/12 10:58:16;;;;;;;20.50;11.82;;;12.00;99.90;;;;;;5100728;28;20419;-67
2021/10/12 11:00:47;;;;;;;15.30;11.35;;;12.00;99.90;;;;;;5109902;28;20103;-67
2021/10/12 11:06:13;;;;;;;14.10;8.35;;;11.90;99.90;;;;;;5070177;28;20373;-67
2021/10/12 11:08:53;;;;;;;4.95;4.45;;;11.60;99.90;;;;;;5050750;28;20022;-66
2021/10/12 11:11:19;;;;;;;10.75;5.97;;;11.50;99.90;;;;;;5049307;28;20383;-66
2021/10/12 11:13:44;;;;;;;9.45;5.53;;;11.50;99.90;;;;;;5048771;28;20021;-66
2021/10/12 11:16:14;;;;;;;11.85;5.90;;;11.40;99.90;;;;;;5057424;28;20060;-67
2021/10/12 11:18:41;;;;;;;6.13;4.68;;;11.50;99.90;;;;;;5051807;28;20078;-67
2021/10/12 11:21:09;;;;;;;4.90;3.60;;;11.50;99.90;;;;;;5060041;28;20021;-68
2021/10/12 11:23:37;;;;;;;5.38;3.13;;;11.50;99.90;;;;;;5061687;28;20083;-68
2021/10/12 11:26:11;;;;;;;4.65;2.80;;;11.50;99.90;;;;;;5052392;28;20021;-68
2021/10/12 11:28:38;;;;;;;3.35;2.38;;;11.60;99.90;;;;;;5059304;28;20060;-67
2021/10/12 11:31:10;;;;;;;5.07;2.70;;;11.60;99.90;;;;;;5061757;28;20021;-68
2021/10/12 11:33:40;;;;;;;3.33;2.50;;;11.70;99.90;;;;;;5052426;28;20228;-69
2021/10/12 11:36:07;;;;;;;3.53;2.83;;;11.80;99.90;;;;;;5052173;28;20098;-68
2021/10/12 11:38:37;;;;;;;12.02;3.20;;;11.90;99.90;;;;;;5049053;28;20083;-68
2021/10/12 11:41:24;;;;;;;7.15;3.00;;;12.00;99.90;;;;;;5049109;28;20021;-68
2021/10/12 11:43:57;;;;;;;7.43;3.45;;;12.20;99.90;;;;;;5047641;28;20061;-67
2021/10/12 11:46:33;;;;;;;8.05;3.42;;;12.30;99.90;;;;;;5051181;28;20032;-68
2021/10/12 11:49:17;;;;;;;3.95;3.08;;;12.50;99.90;;;;;;5069918;28;20425;-67
2021/10/12 11:51:45;;;;;;;10.23;5.55;;;12.70;99.90;;;;;;5060040;28;20374;-67
2021/10/12 11:54:11;;;;;;;5.90;3.00;;;12.80;99.90;;;;;;5049855;28;20029;-66
2021/10/12 11:56:38;;;;;;;6.20;3.17;;;13.00;99.90;;;;;;5049122;28;20078;-66
2021/10/12 11:59:09;;;;;;;3.65;1.90;;;13.20;99.90;;;;;;5048201;28;20033;-66
2021/10/12 12:01:39;;;;;;;3.03;1.90;;;13.30;99.90;;;;;;5050748;28;20035;-67
2021/10/12 12:04:05;;;;;;;2.67;1.90;;;13.30;99.90;;;;;;5069026;28;20068;-67
2021/10/12 12:06:34;;;;;;;3.38;1.75;;;13.60;99.90;;;;;;5050407;28;20382;-67
2021/10/12 12:09:04;;;;;;;4.05;1.90;;;13.60;99.90;;;;;;5048994;28;20524;-67
2021/10/12 12:11:31;;;;;;;4.80;1.75;;;13.40;99.90;;;;;;5051073;28;20017;-67
2021/10/12 12:14:00;;;;;;;6.43;1.48;;;13.30;99.90;;;;;;5049465;28;20037;-67
2021/10/12 12:16:32;;;;;;;4.97;1.60;;;13.30;99.90;;;;;;5041325;28;20471;-67
2021/10/12 12:18:59;;;;;;;5.70;1.17;;;13.50;99.90;;;;;;5034587;28;20379;-67
2021/10/12 12:21:28;;;;;;;2.58;1.27;;;13.50;99.90;;;;;;5035863;28;20108;-66
2021/10/12 12:23:57;;;;;;;6.22;1.33;;;13.60;99.90;;;;;;5035822;28;20029;-66
2021/10/12 12:26:25;;;;;;;5.85;1.58;;;13.60;99.90;;;;;;5036143;28;20033;-67
2021/10/12 12:28:50;;;;;;;6.13;1.52;;;13.80;99.90;;;;;;5049365;28;20049;-67
2021/10/12 12:31:31;;;;;;;7.55;1.85;;;14.00;99.90;;;;;;5055611;28;20032;-66
2021/10/12 12:33:57;;;;;;;5.78;2.22;;;13.90;99.90;;;;;;5035767;28;20044;-67
2021/10/12 12:36:37;;;;;;;4.43;1.85;;;13.70;99.90;;;;;;5034905;28;20396;-67
2021/10/12 12:39:05;;;;;;;5.63;1.90;;;13.80;99.90;;;;;;5035154;28;20040;-67
2021/10/12 12:41:37;;;;;;;7.47;2.30;;;13.90;99.90;;;;;;5034964;28;20072;-67